Terminal Aerodrome Forecast
Issued by NWS

Home | Current Version | Previous Version | Text Only | Print | Product List | Glossary Off
Versions: 1 2 3 4 5 6 7 8 9 10 11 12 13 14 15

310
FTUS43 KJKL 232334
TAFSME
TAF
KSME 232334Z 2400/2424 VRB03KT P6SM BKN150
     FM240600 18004KT P6SM SCT250 WS020/19040KT
     FM241400 19007KT P6SM BKN100
     FM241800 20011KT P6SM BKN080=

USA.gov is the U.S. government's official web portal to all federal, state and local government web resources and services.